sensor_id;sensor_type;location;lat;lon;timestamp;temperature;humidity
5842;DHT22;2947;52.276;9.946;2023-03-29T00:00:45;5.90;99.90
5842;DHT22;2947;52.276;9.946;2023-03-29T00:03:11;5.90;99.90
5842;DHT22;2947;52.276;9.946;2023-03-29T00:05:38;5.90;99.90
5842;DHT22;2947;52.276;9.946;2023-03-29T00:08:06;5.90;99.90
5842;DHT22;2947;52.276;9.946;2023-03-29T00:10:33;5.90;99.90
5842;DHT22;2947;52.276;9.946;2023-03-29T00:12:59;5.90;99.90
5842;DHT22;2947;52.276;9.946;2023-03-29T00:15:26;5.90;99.90
5842;DHT22;2947;52.276;9.946;2023-03-29T00:17:52;5.90;99.90
5842;DHT22;2947;52.276;9.946;2023-03-29T00:20:18;5.90;99.90
5842;DHT22;2947;52.276;9.946;2023-03-29T00:22:44;5.90;99.90
5842;DHT22;2947;52.276;9.946;2023-03-29T00:25:11;5.90;99.90
5842;DHT22;2947;52.276;9.946;2023-03-29T00:27:38;5.90;99.90
5842;DHT22;2947;52.276;9.946;2023-03-29T00:30:05;5.90;99.90
5842;DHT22;2947;52.276;9.946;2023-03-29T00:32:33;5.90;99.90
5842;DHT22;2947;52.276;9.946;2023-03-29T00:35:01;5.90;99.90
5842;DHT22;2947;52.276;9.946;2023-03-29T00:37:27;5.90;99.90
5842;DHT22;2947;52.276;9.946;2023-03-29T00:39:55;5.90;99.90
5842;DHT22;2947;52.276;9.946;2023-03-29T00:42:22;5.90;99.90
5842;DHT22;2947;52.276;9.946;2023-03-29T00:45:02;5.90;99.90
5842;DHT22;2947;52.276;9.946;2023-03-29T00:47:39;5.90;99.90
5842;DHT22;2947;52.276;9.946;2023-03-29T00:53:11;5.90;99.90
5842;DHT22;2947;52.276;9.946;2023-03-29T00:56:19;5.90;99.90
5842;DHT22;2947;52.276;9.946;2023-03-29T00:59:04;5.80;99.90
5842;DHT22;2947;52.276;9.946;2023-03-29T01:01:45;5.80;99.90
5842;DHT22;2947;52.276;9.946;2023-03-29T01:04:31;5.80;99.90
5842;DHT22;2947;52.276;9.946;2023-03-29T01:07:11;5.80;99.90
5842;DHT22;2947;52.276;9.946;2023-03-29T01:09:58;5.70;99.90
5842;DHT22;2947;52.276;9.946;2023-03-29T01:12:29;5.60;99.90
5842;DHT22;2947;52.276;9.946;2023-03-29T01:15:08;5.60;99.90
5842;DHT22;2947;52.276;9.946;2023-03-29T01:17:36;5.60;99.90
5842;DHT22;2947;52.276;9.946;2023-03-29T01:20:15;5.60;99.90
5842;DHT22;2947;52.276;9.946;2023-03-29T01:25:56;5.50;99.90
5842;DHT22;2947;52.276;9.946;2023-03-29T01:28:35;5.50;99.90
5842;DHT22;2947;52.276;9.946;2023-03-29T01:31:09;5.40;99.90
5842;DHT22;2947;52.276;9.946;2023-03-29T01:33:49;5.40;99.90
5842;DHT22;2947;52.276;9.946;2023-03-29T01:36:23;5.40;99.90
5842;DHT22;2947;52.276;9.946;2023-03-29T01:38:57;5.40;99.90
5842;DHT22;2947;52.276;9.946;2023-03-29T01:44:42;5.40;99.90
5842;DHT22;2947;52.276;9.946;2023-03-29T01:47:12;5.40;99.90
5842;DHT22;2947;52.276;9.946;2023-03-29T01:49:55;5.40;99.90
5842;DHT22;2947;52.276;9.946;2023-03-29T01:52:30;5.40;99.90
5842;DHT22;2947;52.276;9.946;2023-03-29T01:55:21;5.50;99.90
5842;DHT22;2947;52.276;9.946;2023-03-29T01:57:50;5.50;99.90
5842;DHT22;2947;52.276;9.946;2023-03-29T02:00:21;5.50;99.90
5842;DHT22;2947;52.276;9.946;2023-03-29T02:02:50;5.50;99.90
5842;DHT22;2947;52.276;9.946;2023-03-29T02:05:18;5.50;99.90
5842;DHT22;2947;52.276;9.946;2023-03-29T02:07:48;5.50;99.90
5842;DHT22;2947;52.276;9.946;2023-03-29T02:10:15;5.40;99.90
5842;DHT22;2947;52.276;9.946;2023-03-29T02:12:42;5.40;99.90
5842;DHT22;2947;52.276;9.946;2023-03-29T02:15:19;5.40;99.90
5842;DHT22;2947;52.276;9.946;2023-03-29T02:17:47;5.40;99.90
5842;DHT22;2947;52.276;9.946;2023-03-29T02:20:26;5.40;99.90
5842;DHT22;2947;52.276;9.946;2023-03-29T02:23:02;5.40;1.00
5842;DHT22;2947;52.276;9.946;2023-03-29T02:25:30;5.40;1.00
5842;DHT22;2947;52.276;9.946;2023-03-29T02:27:57;5.40;1.00
5842;DHT22;2947;52.276;9.946;2023-03-29T02:30:28;5.40;1.00
5842;DHT22;2947;52.276;9.946;2023-03-29T02:33:17;5.40;1.00
5842;DHT22;2947;52.276;9.946;2023-03-29T02:36:07;5.40;1.00
5842;DHT22;2947;52.276;9.946;2023-03-29T02:38:36;5.40;1.00
5842;DHT22;2947;52.276;9.946;2023-03-29T02:41:03;5.40;99.90
5842;DHT22;2947;52.276;9.946;2023-03-29T02:43:30;5.40;99.90
5842;DHT22;2947;52.276;9.946;2023-03-29T02:45:57;5.40;99.90
5842;DHT22;2947;52.276;9.946;2023-03-29T02:48:24;5.30;1.00
5842;DHT22;2947;52.276;9.946;2023-03-29T02:50:55;5.30;1.00
5842;DHT22;2947;52.276;9.946;2023-03-29T02:53:29;5.40;1.00
5842;DHT22;2947;52.276;9.946;2023-03-29T02:55:58;5.30;27.50
5842;DHT22;2947;52.276;9.946;2023-03-29T02:58:26;5.30;99.90
5842;DHT22;2947;52.276;9.946;2023-03-29T03:00:54;5.30;99.90
5842;DHT22;2947;52.276;9.946;2023-03-29T03:03:21;5.20;1.00
5842;DHT22;2947;52.276;9.946;2023-03-29T03:05:47;5.20;18.60
5842;DHT22;2947;52.276;9.946;2023-03-29T03:08:13;5.20;99.90
5842;DHT22;2947;52.276;9.946;2023-03-29T03:10:40;5.10;1.00
5842;DHT22;2947;52.276;9.946;2023-03-29T03:13:05;5.10;1.00
5842;DHT22;2947;52.276;9.946;2023-03-29T03:15:31;5.10;99.90
5842;DHT22;2947;52.276;9.946;2023-03-29T03:18:00;5.00;53.10
5842;DHT22;2947;52.276;9.946;2023-03-29T03:20:28;5.00;24.40
5842;DHT22;2947;52.276;9.946;2023-03-29T03:22:55;5.00;99.90
5842;DHT22;2947;52.276;9.946;2023-03-29T03:25:21;4.90;99.90
5842;DHT22;2947;52.276;9.946;2023-03-29T03:27:48;4.90;1.00
5842;DHT22;2947;52.276;9.946;2023-03-29T03:30:15;4.90;26.90
5842;DHT22;2947;52.276;9.946;2023-03-29T03:32:43;4.90;99.90
5842;DHT22;2947;52.276;9.946;2023-03-29T03:35:09;4.90;99.90
5842;DHT22;2947;52.276;9.946;2023-03-29T03:37:37;4.90;99.90
5842;DHT22;2947;52.276;9.946;2023-03-29T03:40:04;4.90;1.00
5842;DHT22;2947;52.276;9.946;2023-03-29T03:42:31;4.90;1.00
5842;DHT22;2947;52.276;9.946;2023-03-29T03:44:57;4.90;1.00
5842;DHT22;2947;52.276;9.946;2023-03-29T03:47:23;4.90;1.00
5842;DHT22;2947;52.276;9.946;2023-03-29T03:49:49;4.90;1.00
5842;DHT22;2947;52.276;9.946;2023-03-29T03:52:16;4.90;1.00
5842;DHT22;2947;52.276;9.946;2023-03-29T03:54:42;4.90;1.00
5842;DHT22;2947;52.276;9.946;2023-03-29T03:57:11;5.00;1.00
5842;DHT22;2947;52.276;9.946;2023-03-29T03:59:37;5.00;1.00
5842;DHT22;2947;52.276;9.946;2023-03-29T04:02:05;5.00;1.00
5842;DHT22;2947;52.276;9.946;2023-03-29T04:04:32;5.00;1.00
5842;DHT22;2947;52.276;9.946;2023-03-29T04:06:58;5.00;1.00
5842;DHT22;2947;52.276;9.946;2023-03-29T04:09:30;5.00;1.00
5842;DHT22;2947;52.276;9.946;2023-03-29T04:11:57;5.00;1.00
5842;DHT22;2947;52.276;9.946;2023-03-29T04:14:23;5.00;1.00
5842;DHT22;2947;52.276;9.946;2023-03-29T04:16:51;4.90;1.00
5842;DHT22;2947;52.276;9.946;2023-03-29T04:19:17;5.00;1.00
5842;DHT22;2947;52.276;9.946;2023-03-29T04:21:43;5.00;1.00
5842;DHT22;2947;52.276;9.946;2023-03-29T04:24:11;4.90;1.00
5842;DHT22;2947;52.276;9.946;2023-03-29T04:26:37;4.90;1.00
5842;DHT22;2947;52.276;9.946;2023-03-29T04:29:03;4.90;1.00
5842;DHT22;2947;52.276;9.946;2023-03-29T04:31:29;5.00;1.00
5842;DHT22;2947;52.276;9.946;2023-03-29T04:33:58;5.00;99.90
5842;DHT22;2947;52.276;9.946;2023-03-29T04:36:24;5.00;99.90
5842;DHT22;2947;52.276;9.946;2023-03-29T04:38:51;5.00;99.90
5842;DHT22;2947;52.276;9.946;2023-03-29T04:41:18;5.00;99.90
5842;DHT22;2947;52.276;9.946;2023-03-29T04:43:45;5.00;99.90
5842;DHT22;2947;52.276;9.946;2023-03-29T04:46:12;4.90;99.90
5842;DHT22;2947;52.276;9.946;2023-03-29T04:48:38;4.90;1.00
5842;DHT22;2947;52.276;9.946;2023-03-29T04:51:04;4.90;1.00
5842;DHT22;2947;52.276;9.946;2023-03-29T04:53:30;5.00;1.00
5842;DHT22;2947;52.276;9.946;2023-03-29T04:55:56;4.90;1.00
5842;DHT22;2947;52.276;9.946;2023-03-29T04:58:24;4.90;1.00
5842;DHT22;2947;52.276;9.946;2023-03-29T05:00:50;4.90;1.00
5842;DHT22;2947;52.276;9.946;2023-03-29T05:03:16;4.90;1.00
5842;DHT22;2947;52.276;9.946;2023-03-29T05:05:42;5.00;1.00
5842;DHT22;2947;52.276;9.946;2023-03-29T05:08:08;5.00;1.00
5842;DHT22;2947;52.276;9.946;2023-03-29T05:10:35;5.00;1.00
5842;DHT22;2947;52.276;9.946;2023-03-29T05:13:02;5.00;99.90
5842;DHT22;2947;52.276;9.946;2023-03-29T05:15:29;5.00;99.90
5842;DHT22;2947;52.276;9.946;2023-03-29T05:17:55;5.00;99.90
5842;DHT22;2947;52.276;9.946;2023-03-29T05:20:22;5.00;99.90
5842;DHT22;2947;52.276;9.946;2023-03-29T05:22:52;5.00;99.90
5842;DHT22;2947;52.276;9.946;2023-03-29T05:25:19;5.00;99.90
5842;DHT22;2947;52.276;9.946;2023-03-29T05:27:45;5.00;99.90
5842;DHT22;2947;52.276;9.946;2023-03-29T05:30:12;5.00;1.00
5842;DHT22;2947;52.276;9.946;2023-03-29T05:32:40;5.00;1.00
5842;DHT22;2947;52.276;9.946;2023-03-29T05:35:07;5.00;99.90
5842;DHT22;2947;52.276;9.946;2023-03-29T05:37:33;5.00;1.00
5842;DHT22;2947;52.276;9.946;2023-03-29T05:39:59;5.00;1.00
5842;DHT22;2947;52.276;9.946;2023-03-29T05:42:25;5.00;1.00
5842;DHT22;2947;52.276;9.946;2023-03-29T05:44:52;5.00;1.00
5842;DHT22;2947;52.276;9.946;2023-03-29T05:47:18;5.00;1.00
5842;DHT22;2947;52.276;9.946;2023-03-29T05:49:44;5.00;1.00
5842;DHT22;2947;52.276;9.946;2023-03-29T05:52:11;5.10;1.00
5842;DHT22;2947;52.276;9.946;2023-03-29T05:54:37;5.10;1.00
5842;DHT22;2947;52.276;9.946;2023-03-29T05:57:03;5.10;1.00
5842;DHT22;2947;52.276;9.946;2023-03-29T05:59:30;5.10;1.00
5842;DHT22;2947;52.276;9.946;2023-03-29T06:01:56;5.10;1.00
5842;DHT22;2947;52.276;9.946;2023-03-29T06:04:24;5.20;99.90
5842;DHT22;2947;52.276;9.946;2023-03-29T06:06:50;5.20;99.90
5842;DHT22;2947;52.276;9.946;2023-03-29T06:09:17;5.20;99.90
5842;DHT22;2947;52.276;9.946;2023-03-29T06:11:44;5.30;99.90
5842;DHT22;2947;52.276;9.946;2023-03-29T06:14:11;5.30;99.90
5842;DHT22;2947;52.276;9.946;2023-03-29T06:16:38;5.30;99.90
5842;DHT22;2947;52.276;9.946;2023-03-29T06:19:05;5.40;99.90
5842;DHT22;2947;52.276;9.946;2023-03-29T06:21:31;5.40;99.90
5842;DHT22;2947;52.276;9.946;2023-03-29T06:23:57;5.40;99.90
5842;DHT22;2947;52.276;9.946;2023-03-29T06:26:24;5.50;99.90
5842;DHT22;2947;52.276;9.946;2023-03-29T06:28:52;5.50;99.90
5842;DHT22;2947;52.276;9.946;2023-03-29T06:31:18;5.50;99.90
5842;DHT22;2947;52.276;9.946;2023-03-29T06:33:45;5.50;99.90
5842;DHT22;2947;52.276;9.946;2023-03-29T06:36:11;5.50;99.90
5842;DHT22;2947;52.276;9.946;2023-03-29T06:38:38;5.60;99.90
5842;DHT22;2947;52.276;9.946;2023-03-29T06:41:06;5.70;1.00
5842;DHT22;2947;52.276;9.946;2023-03-29T06:43:32;5.70;66.20
5842;DHT22;2947;52.276;9.946;2023-03-29T06:45:59;5.80;1.00
5842;DHT22;2947;52.276;9.946;2023-03-29T06:48:26;5.80;87.40
5842;DHT22;2947;52.276;9.946;2023-03-29T06:50:52;5.90;99.90
5842;DHT22;2947;52.276;9.946;2023-03-29T06:53:19;5.90;1.00
5842;DHT22;2947;52.276;9.946;2023-03-29T06:55:45;6.00;1.00
5842;DHT22;2947;52.276;9.946;2023-03-29T06:58:10;6.10;99.90
5842;DHT22;2947;52.276;9.946;2023-03-29T07:00:36;6.10;99.90
5842;DHT22;2947;52.276;9.946;2023-03-29T07:03:05;6.20;99.90
5842;DHT22;2947;52.276;9.946;2023-03-29T07:05:34;6.30;1.00
5842;DHT22;2947;52.276;9.946;2023-03-29T07:08:01;6.40;1.00
5842;DHT22;2947;52.276;9.946;2023-03-29T07:10:34;6.40;1.00
5842;DHT22;2947;52.276;9.946;2023-03-29T07:13:03;6.40;1.00
5842;DHT22;2947;52.276;9.946;2023-03-29T07:15:31;6.50;99.90
5842;DHT22;2947;52.276;9.946;2023-03-29T07:17:58;6.50;1.00
5842;DHT22;2947;52.276;9.946;2023-03-29T07:20:24;6.50;99.90
5842;DHT22;2947;52.276;9.946;2023-03-29T07:22:51;6.60;99.90
5842;DHT22;2947;52.276;9.946;2023-03-29T07:25:20;6.50;99.90
5842;DHT22;2947;52.276;9.946;2023-03-29T07:27:47;6.60;1.00
5842;DHT22;2947;52.276;9.946;2023-03-29T07:30:17;6.60;1.00
5842;DHT22;2947;52.276;9.946;2023-03-29T07:32:48;6.60;99.90
5842;DHT22;2947;52.276;9.946;2023-03-29T07:35:15;6.70;1.00
5842;DHT22;2947;52.276;9.946;2023-03-29T07:37:42;6.60;30.80
5842;DHT22;2947;52.276;9.946;2023-03-29T07:40:11;6.70;99.90
5842;DHT22;2947;52.276;9.946;2023-03-29T07:42:50;6.80;1.00
5842;DHT22;2947;52.276;9.946;2023-03-29T07:45:18;6.90;1.00
5842;DHT22;2947;52.276;9.946;2023-03-29T07:47:48;6.80;1.00
5842;DHT22;2947;52.276;9.946;2023-03-29T07:50:15;6.90;1.00
5842;DHT22;2947;52.276;9.946;2023-03-29T07:52:42;7.00;99.90
5842;DHT22;2947;52.276;9.946;2023-03-29T07:55:10;7.00;9.10
5842;DHT22;2947;52.276;9.946;2023-03-29T07:57:37;7.10;18.50
5842;DHT22;2947;52.276;9.946;2023-03-29T08:00:04;7.10;1.00
5842;DHT22;2947;52.276;9.946;2023-03-29T08:02:42;7.10;99.90
5842;DHT22;2947;52.276;9.946;2023-03-29T08:05:09;7.10;1.00
5842;DHT22;2947;52.276;9.946;2023-03-29T08:07:37;7.10;1.00
5842;DHT22;2947;52.276;9.946;2023-03-29T08:10:05;7.10;1.00
5842;DHT22;2947;52.276;9.946;2023-03-29T08:12:35;7.10;1.00
5842;DHT22;2947;52.276;9.946;2023-03-29T08:15:03;7.20;1.00
5842;DHT22;2947;52.276;9.946;2023-03-29T08:17:30;7.30;1.00
5842;DHT22;2947;52.276;9.946;2023-03-29T08:19:56;7.30;99.90
5842;DHT22;2947;52.276;9.946;2023-03-29T08:22:21;7.30;1.00
5842;DHT22;2947;52.276;9.946;2023-03-29T08:24:47;7.30;1.00
5842;DHT22;2947;52.276;9.946;2023-03-29T08:27:14;7.40;31.50
5842;DHT22;2947;52.276;9.946;2023-03-29T08:29:40;7.40;1.00
5842;DHT22;2947;52.276;9.946;2023-03-29T08:32:05;7.40;99.90
5842;DHT22;2947;52.276;9.946;2023-03-29T08:34:31;7.40;1.00
5842;DHT22;2947;52.276;9.946;2023-03-29T08:36:58;7.40;99.90
5842;DHT22;2947;52.276;9.946;2023-03-29T08:39:23;7.50;99.90
5842;DHT22;2947;52.276;9.946;2023-03-29T08:42:22;7.40;99.90
5842;DHT22;2947;52.276;9.946;2023-03-29T08:45:14;7.40;99.90
5842;DHT22;2947;52.276;9.946;2023-03-29T08:50:32;7.50;99.90
5842;DHT22;2947;52.276;9.946;2023-03-29T08:53:04;7.50;1.00
5842;DHT22;2947;52.276;9.946;2023-03-29T08:55:37;7.50;1.00
5842;DHT22;2947;52.276;9.946;2023-03-29T08:58:23;7.50;22.60
5842;DHT22;2947;52.276;9.946;2023-03-29T09:00:54;7.50;99.90
5842;DHT22;2947;52.276;9.946;2023-03-29T09:03:23;7.60;80.90
5842;DHT22;2947;52.276;9.946;2023-03-29T09:05:56;7.60;1.00
5842;DHT22;2947;52.276;9.946;2023-03-29T09:08:24;7.70;39.40
5842;DHT22;2947;52.276;9.946;2023-03-29T09:20:05;7.90;99.90
5842;DHT22;2947;52.276;9.946;2023-03-29T09:25:42;7.90;57.00
5842;DHT22;2947;52.276;9.946;2023-03-29T09:28:39;8.00;1.00
5842;DHT22;2947;52.276;9.946;2023-03-29T09:31:13;8.00;1.00
5842;DHT22;2947;52.276;9.946;2023-03-29T09:33:52;8.00;1.00
5842;DHT22;2947;52.276;9.946;2023-03-29T09:39:19;8.10;1.00
5842;DHT22;2947;52.276;9.946;2023-03-29T09:42:05;8.20;1.00
5842;DHT22;2947;52.276;9.946;2023-03-29T09:44:43;8.30;1.00
5842;DHT22;2947;52.276;9.946;2023-03-29T09:47:26;8.30;47.70
5842;DHT22;2947;52.276;9.946;2023-03-29T09:50:10;8.40;47.90
5842;DHT22;2947;52.276;9.946;2023-03-29T09:52:42;8.50;1.00
5842;DHT22;2947;52.276;9.946;2023-03-29T09:55:13;8.50;1.00
5842;DHT22;2947;52.276;9.946;2023-03-29T09:57:40;8.60;1.00
5842;DHT22;2947;52.276;9.946;2023-03-29T10:00:07;8.60;1.00
5842;DHT22;2947;52.276;9.946;2023-03-29T10:02:35;8.60;1.00
5842;DHT22;2947;52.276;9.946;2023-03-29T10:05:04;8.60;1.00
5842;DHT22;2947;52.276;9.946;2023-03-29T10:07:45;8.70;1.00
5842;DHT22;2947;52.276;9.946;2023-03-29T10:10:21;8.80;1.00
5842;DHT22;2947;52.276;9.946;2023-03-29T10:12:58;8.90;1.00
5842;DHT22;2947;52.276;9.946;2023-03-29T10:15:28;9.00;1.00
5842;DHT22;2947;52.276;9.946;2023-03-29T10:17:59;9.10;1.00
5842;DHT22;2947;52.276;9.946;2023-03-29T10:20:28;9.10;1.00
5842;DHT22;2947;52.276;9.946;2023-03-29T10:22:58;9.20;1.00
5842;DHT22;2947;52.276;9.946;2023-03-29T10:25:26;9.20;1.00
5842;DHT22;2947;52.276;9.946;2023-03-29T10:28:01;9.30;1.00
5842;DHT22;2947;52.276;9.946;2023-03-29T10:30:32;9.40;7.30
5842;DHT22;2947;52.276;9.946;2023-03-29T10:33:00;9.60;99.90
5842;DHT22;2947;52.276;9.946;2023-03-29T10:35:39;9.90;1.00
5842;DHT22;2947;52.276;9.946;2023-03-29T10:38:19;9.90;1.00
5842;DHT22;2947;52.276;9.946;2023-03-29T10:40:49;10.10;1.00
5842;DHT22;2947;52.276;9.946;2023-03-29T10:45:50;10.20;99.90
5842;DHT22;2947;52.276;9.946;2023-03-29T10:48:23;10.50;1.00
5842;DHT22;2947;52.276;9.946;2023-03-29T10:50:53;10.90;99.90
5842;DHT22;2947;52.276;9.946;2023-03-29T10:53:27;11.50;99.90
5842;DHT22;2947;52.276;9.946;2023-03-29T10:59:16;11.10;99.90
5842;DHT22;2947;52.276;9.946;2023-03-29T11:02:14;11.10;48.40
5842;DHT22;2947;52.276;9.946;2023-03-29T11:04:44;11.00;14.30
5842;DHT22;2947;52.276;9.946;2023-03-29T11:11:04;10.90;3.50
5842;DHT22;2947;52.276;9.946;2023-03-29T11:13:49;10.80;5.70
5842;DHT22;2947;52.276;9.946;2023-03-29T11:19:47;10.70;99.90
5842;DHT22;2947;52.276;9.946;2023-03-29T11:28:04;10.90;99.90
5842;DHT22;2947;52.276;9.946;2023-03-29T11:31:15;10.90;99.90
5842;DHT22;2947;52.276;9.946;2023-03-29T11:36:58;10.80;99.90
5842;DHT22;2947;52.276;9.946;2023-03-29T11:42:13;10.80;99.90
5842;DHT22;2947;52.276;9.946;2023-03-29T11:44:43;10.80;99.90
5842;DHT22;2947;52.276;9.946;2023-03-29T11:47:12;10.90;99.90
5842;DHT22;2947;52.276;9.946;2023-03-29T11:49:58;11.00;99.90
5842;DHT22;2947;52.276;9.946;2023-03-29T11:55:26;11.20;99.90
5842;DHT22;2947;52.276;9.946;2023-03-29T12:00:54;11.80;99.90
5842;DHT22;2947;52.276;9.946;2023-03-29T12:03:45;12.20;80.90
5842;DHT22;2947;52.276;9.946;2023-03-29T12:06:30;12.30;74.90
5842;DHT22;2947;52.276;9.946;2023-03-29T12:12:05;12.70;1.00
5842;DHT22;2947;52.276;9.946;2023-03-29T12:14:54;12.60;1.00
5842;DHT22;2947;52.276;9.946;2023-03-29T12:17:41;12.60;1.00
5842;DHT22;2947;52.276;9.946;2023-03-29T12:20:21;12.40;1.00
5842;DHT22;2947;52.276;9.946;2023-03-29T12:22:53;12.40;1.00
5842;DHT22;2947;52.276;9.946;2023-03-29T12:37:15;12.20;1.00
5842;DHT22;2947;52.276;9.946;2023-03-29T12:39:51;12.20;1.00
5842;DHT22;2947;52.276;9.946;2023-03-29T12:42:29;12.20;1.00
5842;DHT22;2947;52.276;9.946;2023-03-29T12:44:59;12.20;1.00
5842;DHT22;2947;52.276;9.946;2023-03-29T12:47:30;12.30;1.00
5842;DHT22;2947;52.276;9.946;2023-03-29T12:49:59;12.30;1.00
5842;DHT22;2947;52.276;9.946;2023-03-29T12:52:35;12.30;1.00
5842;DHT22;2947;52.276;9.946;2023-03-29T12:55:22;12.20;1.00
5842;DHT22;2947;52.276;9.946;2023-03-29T13:03:48;12.40;1.00
5842;DHT22;2947;52.276;9.946;2023-03-29T13:06:28;12.50;1.00
5842;DHT22;2947;52.276;9.946;2023-03-29T13:15:00;12.30;99.90
5842;DHT22;2947;52.276;9.946;2023-03-29T13:18:09;12.20;99.90
5842;DHT22;2947;52.276;9.946;2023-03-29T13:21:02;12.30;99.90
5842;DHT22;2947;52.276;9.946;2023-03-29T13:23:44;12.20;99.90
5842;DHT22;2947;52.276;9.946;2023-03-29T13:29:47;12.20;99.90
5842;DHT22;2947;52.276;9.946;2023-03-29T13:38:20;11.90;99.90
5842;DHT22;2947;52.276;9.946;2023-03-29T13:41:04;11.90;1.00
5842;DHT22;2947;52.276;9.946;2023-03-29T13:46:22;12.00;1.00
5842;DHT22;2947;52.276;9.946;2023-03-29T13:52:01;11.90;1.00
5842;DHT22;2947;52.276;9.946;2023-03-29T13:54:49;12.00;99.90
5842;DHT22;2947;52.276;9.946;2023-03-29T13:57:24;12.00;1.00
5842;DHT22;2947;52.276;9.946;2023-03-29T14:02:59;11.80;1.00
5842;DHT22;2947;52.276;9.946;2023-03-29T14:05:37;11.70;1.00
5842;DHT22;2947;52.276;9.946;2023-03-29T14:08:28;11.60;99.90
5842;DHT22;2947;52.276;9.946;2023-03-29T14:11:00;11.70;1.00
5842;DHT22;2947;52.276;9.946;2023-03-29T14:13:28;11.60;1.00
5842;DHT22;2947;52.276;9.946;2023-03-29T14:16:06;11.70;99.90
5842;DHT22;2947;52.276;9.946;2023-03-29T14:18:39;11.80;99.90
5842;DHT22;2947;52.276;9.946;2023-03-29T14:21:06;11.90;1.00
5842;DHT22;2947;52.276;9.946;2023-03-29T14:23:35;11.90;1.00
5842;DHT22;2947;52.276;9.946;2023-03-29T14:26:16;11.90;99.90
5842;DHT22;2947;52.276;9.946;2023-03-29T14:28:51;11.70;99.90
5842;DHT22;2947;52.276;9.946;2023-03-29T14:31:25;11.50;99.90
5842;DHT22;2947;52.276;9.946;2023-03-29T14:33:59;11.40;99.90
5842;DHT22;2947;52.276;9.946;2023-03-29T14:36:27;11.40;22.90
5842;DHT22;2947;52.276;9.946;2023-03-29T14:39:07;11.40;1.00
5842;DHT22;2947;52.276;9.946;2023-03-29T14:41:37;11.40;1.00
5842;DHT22;2947;52.276;9.946;2023-03-29T14:44:05;11.40;5.50
5842;DHT22;2947;52.276;9.946;2023-03-29T14:46:31;11.30;1.00
5842;DHT22;2947;52.276;9.946;2023-03-29T14:48:59;11.30;1.00
5842;DHT22;2947;52.276;9.946;2023-03-29T14:51:26;11.30;99.90
5842;DHT22;2947;52.276;9.946;2023-03-29T14:53:59;11.30;99.90
5842;DHT22;2947;52.276;9.946;2023-03-29T14:56:27;11.20;99.90
5842;DHT22;2947;52.276;9.946;2023-03-29T14:58:55;11.30;1.00
5842;DHT22;2947;52.276;9.946;2023-03-29T15:01:24;11.30;99.90
5842;DHT22;2947;52.276;9.946;2023-03-29T15:03:56;11.20;1.00
5842;DHT22;2947;52.276;9.946;2023-03-29T15:06:38;11.30;1.00
5842;DHT22;2947;52.276;9.946;2023-03-29T15:09:05;11.30;1.00
5842;DHT22;2947;52.276;9.946;2023-03-29T15:11:34;11.30;1.00
5842;DHT22;2947;52.276;9.946;2023-03-29T15:16:35;11.40;99.90
5842;DHT22;2947;52.276;9.946;2023-03-29T15:19:03;11.40;99.90
5842;DHT22;2947;52.276;9.946;2023-03-29T15:21:34;11.40;99.90
5842;DHT22;2947;52.276;9.946;2023-03-29T15:24:02;11.50;99.90
5842;DHT22;2947;52.276;9.946;2023-03-29T15:26:33;11.50;99.90
5842;DHT22;2947;52.276;9.946;2023-03-29T15:29:12;11.60;1.00
5842;DHT22;2947;52.276;9.946;2023-03-29T15:31:53;11.60;1.00
5842;DHT22;2947;52.276;9.946;2023-03-29T15:34:29;11.60;99.90
5842;DHT22;2947;52.276;9.946;2023-03-29T15:36:56;11.60;1.00
5842;DHT22;2947;52.276;9.946;2023-03-29T15:39:22;11.60;1.00
5842;DHT22;2947;52.276;9.946;2023-03-29T15:41:50;11.70;1.00
5842;DHT22;2947;52.276;9.946;2023-03-29T15:44:42;11.80;99.90
5842;DHT22;2947;52.276;9.946;2023-03-29T15:47:11;11.80;1.00
5842;DHT22;2947;52.276;9.946;2023-03-29T15:49:37;11.70;1.00
5842;DHT22;2947;52.276;9.946;2023-03-29T15:52:03;11.70;99.90
5842;DHT22;2947;52.276;9.946;2023-03-29T15:54:29;11.70;30.60
5842;DHT22;2947;52.276;9.946;2023-03-29T15:57:00;11.70;99.90
5842;DHT22;2947;52.276;9.946;2023-03-29T15:59:30;11.70;99.90
5842;DHT22;2947;52.276;9.946;2023-03-29T16:01:56;11.70;1.00
5842;DHT22;2947;52.276;9.946;2023-03-29T16:04:23;11.70;99.90
5842;DHT22;2947;52.276;9.946;2023-03-29T16:06:52;11.70;99.90
5842;DHT22;2947;52.276;9.946;2023-03-29T16:09:19;11.80;99.90
5842;DHT22;2947;52.276;9.946;2023-03-29T16:11:47;11.80;99.90
5842;DHT22;2947;52.276;9.946;2023-03-29T16:14:24;11.90;99.90
5842;DHT22;2947;52.276;9.946;2023-03-29T16:16:54;11.90;1.00
5842;DHT22;2947;52.276;9.946;2023-03-29T16:19:21;11.90;1.00
5842;DHT22;2947;52.276;9.946;2023-03-29T16:21:47;11.80;1.00
5842;DHT22;2947;52.276;9.946;2023-03-29T16:24:21;11.80;99.90
5842;DHT22;2947;52.276;9.946;2023-03-29T16:26:49;11.70;99.90
5842;DHT22;2947;52.276;9.946;2023-03-29T16:29:17;11.70;1.00
5842;DHT22;2947;52.276;9.946;2023-03-29T16:31:44;11.60;86.20
5842;DHT22;2947;52.276;9.946;2023-03-29T16:34:12;11.60;1.00
5842;DHT22;2947;52.276;9.946;2023-03-29T16:36:39;11.70;99.90
5842;DHT22;2947;52.276;9.946;2023-03-29T16:39:05;11.80;1.00
5842;DHT22;2947;52.276;9.946;2023-03-29T16:41:32;11.70;99.90
5842;DHT22;2947;52.276;9.946;2023-03-29T16:43:58;11.70;99.90
5842;DHT22;2947;52.276;9.946;2023-03-29T16:46:24;11.60;1.00
5842;DHT22;2947;52.276;9.946;2023-03-29T16:48:50;11.60;1.00
5842;DHT22;2947;52.276;9.946;2023-03-29T16:51:18;11.60;99.90
5842;DHT22;2947;52.276;9.946;2023-03-29T16:53:46;11.60;99.90
5842;DHT22;2947;52.276;9.946;2023-03-29T16:56:12;11.60;1.00
5842;DHT22;2947;52.276;9.946;2023-03-29T16:58:39;11.60;1.00
5842;DHT22;2947;52.276;9.946;2023-03-29T17:01:10;11.50;99.90
5842;DHT22;2947;52.276;9.946;2023-03-29T17:03:38;11.50;99.90
5842;DHT22;2947;52.276;9.946;2023-03-29T17:06:05;11.50;99.90
5842;DHT22;2947;52.276;9.946;2023-03-29T17:08:32;11.60;1.00
5842;DHT22;2947;52.276;9.946;2023-03-29T17:10:58;11.70;99.90
5842;DHT22;2947;52.276;9.946;2023-03-29T17:13:24;11.80;1.00
5842;DHT22;2947;52.276;9.946;2023-03-29T17:15:51;11.80;1.00
5842;DHT22;2947;52.276;9.946;2023-03-29T17:18:19;11.80;99.90
5842;DHT22;2947;52.276;9.946;2023-03-29T17:20:45;11.70;27.40
5842;DHT22;2947;52.276;9.946;2023-03-29T17:23:11;11.70;99.90
5842;DHT22;2947;52.276;9.946;2023-03-29T17:25:37;11.70;1.00
5842;DHT22;2947;52.276;9.946;2023-03-29T17:28:03;11.70;1.00
5842;DHT22;2947;52.276;9.946;2023-03-29T17:30:29;11.70;99.90
5842;DHT22;2947;52.276;9.946;2023-03-29T17:32:57;11.80;99.90
5842;DHT22;2947;52.276;9.946;2023-03-29T17:35:25;11.80;1.00
5842;DHT22;2947;52.276;9.946;2023-03-29T17:37:50;11.80;99.90
5842;DHT22;2947;52.276;9.946;2023-03-29T17:40:16;11.90;99.90
5842;DHT22;2947;52.276;9.946;2023-03-29T17:42:43;11.90;99.90
5842;DHT22;2947;52.276;9.946;2023-03-29T17:45:10;11.90;99.90
5842;DHT22;2947;52.276;9.946;2023-03-29T17:47:37;11.90;99.90
5842;DHT22;2947;52.276;9.946;2023-03-29T17:50:04;12.00;1.00
5842;DHT22;2947;52.276;9.946;2023-03-29T17:52:30;12.00;1.00
5842;DHT22;2947;52.276;9.946;2023-03-29T17:54:56;12.60;1.00
5842;DHT22;2947;52.276;9.946;2023-03-29T17:57:22;12.00;1.00
5842;DHT22;2947;52.276;9.946;2023-03-29T17:59:48;12.00;99.90
5842;DHT22;2947;52.276;9.946;2023-03-29T18:02:22;12.00;1.00
5842;DHT22;2947;52.276;9.946;2023-03-29T18:04:49;12.00;1.00
5842;DHT22;2947;52.276;9.946;2023-03-29T18:07:15;12.00;99.90
5842;DHT22;2947;52.276;9.946;2023-03-29T18:09:42;12.10;99.90
5842;DHT22;2947;52.276;9.946;2023-03-29T18:12:08;12.10;99.90
5842;DHT22;2947;52.276;9.946;2023-03-29T18:14:34;12.10;99.90
5842;DHT22;2947;52.276;9.946;2023-03-29T18:17:01;12.10;99.90
5842;DHT22;2947;52.276;9.946;2023-03-29T18:19:27;12.10;99.90
5842;DHT22;2947;52.276;9.946;2023-03-29T18:21:53;12.10;1.00
5842;DHT22;2947;52.276;9.946;2023-03-29T18:24:19;12.10;1.00
5842;DHT22;2947;52.276;9.946;2023-03-29T18:26:46;12.10;1.00